Time;durP1;ratioP1;P1;durP2;ratioP2;P2;SDS_P1;SDS_P2;PMS_P1;PMS_P2;Temp;Humidity;BMP_temperature;BMP_pressure;BME280_temperature;BME280_humidity;BME280_pressure;Samples;Min_cycle;Max_cycle;Signal;HPM_P1;HPM_P2
2023/07/16 00:01:27;;;;;;;3.50;1.33;;;16.40;52.50;;;;;;4970724;28;20466;-74
2023/07/16 00:03:53;;;;;;;2.05;0.82;;;16.40;70.70;;;;;;4968675;28;20047;-74
2023/07/16 00:06:18;;;;;;;1.50;0.82;;;16.40;89.20;;;;;;4968751;28;20059;-74
2023/07/16 00:08:44;;;;;;;3.05;1.15;;;16.30;99.90;;;;;;4949640;28;20083;-73
2023/07/16 00:11:10;;;;;;;1.77;0.93;;;16.30;99.90;;;;;;4967482;28;20133;-73
2023/07/16 00:13:36;;;;;;;2.80;0.85;;;16.20;99.90;;;;;;4968477;28;20054;-73
2023/07/16 00:16:01;;;;;;;2.50;1.10;;;16.20;99.90;;;;;;4952786;28;20039;-73
2023/07/16 00:18:27;;;;;;;2.25;1.08;;;16.20;99.90;;;;;;4968568;28;20082;-73
2023/07/16 00:20:52;;;;;;;2.42;1.10;;;16.20;99.90;;;;;;4968369;28;20046;-73
2023/07/16 00:23:18;;;;;;;2.10;1.10;;;16.20;99.90;;;;;;4952607;28;20078;-73
2023/07/16 00:25:44;;;;;;;2.13;1.10;;;16.10;99.90;;;;;;4968571;28;20043;-73
2023/07/16 00:28:11;;;;;;;3.33;1.50;;;16.10;99.90;;;;;;4968370;28;20146;-73
2023/07/16 00:30:37;;;;;;;3.53;1.50;;;16.10;99.90;;;;;;4952557;28;20122;-72
2023/07/16 00:33:03;;;;;;;2.47;1.20;;;16.10;99.90;;;;;;4968573;28;20138;-73
2023/07/16 00:35:28;;;;;;;1.88;1.02;;;16.20;99.90;;;;;;4968434;28;20391;-74
2023/07/16 00:37:54;;;;;;;2.25;1.25;;;16.20;99.90;;;;;;4968368;28;20134;-73
2023/07/16 00:40:20;;;;;;;3.08;1.33;;;16.20;99.90;;;;;;4968416;28;20057;-73
2023/07/16 00:42:45;;;;;;;4.30;1.33;;;16.10;99.90;;;;;;4968229;28;20536;-73
2023/07/16 00:45:14;;;;;;;3.25;1.40;;;16.10;99.90;;;;;;4966226;28;20051;-73
2023/07/16 00:47:41;;;;;;;1.70;1.00;;;16.10;99.90;;;;;;4967348;28;20046;-74
2023/07/16 00:50:08;;;;;;;1.88;0.95;;;16.10;99.90;;;;;;4966240;28;20129;-73
2023/07/16 00:52:34;;;;;;;1.58;0.95;;;16.00;99.90;;;;;;4967990;28;20057;-73
2023/07/16 00:55:00;;;;;;;3.35;1.42;;;16.00;99.90;;;;;;4968465;28;20039;-73
2023/07/16 00:57:26;;;;;;;2.80;1.30;;;16.00;99.90;;;;;;4951933;28;20486;-73
2023/07/16 00:59:52;;;;;;;2.55;1.10;;;16.00;99.90;;;;;;4952067;28;20052;-73
2023/07/16 01:02:17;;;;;;;2.58;1.38;;;16.00;99.90;;;;;;4951921;28;20047;-73
2023/07/16 01:04:43;;;;;;;2.08;1.00;;;15.90;99.90;;;;;;4951904;28;20534;-73
2023/07/16 01:07:13;;;;;;;4.53;1.60;;;16.00;1.00;;;;;;4967067;28;20502;-72
2023/07/16 01:09:42;;;;;;;4.38;1.77;;;16.00;1.00;;;;;;4955023;28;20394;-73
2023/07/16 01:12:09;;;;;;;3.08;1.30;;;16.10;99.90;;;;;;4967836;28;20039;-73
2023/07/16 01:14:35;;;;;;;2.22;1.25;;;16.10;99.90;;;;;;4969075;28;20047;-74
2023/07/16 01:17:06;;;;;;;3.67;1.48;;;16.10;99.90;;;;;;4969327;28;20114;-74
2023/07/16 01:19:32;;;;;;;4.63;1.60;;;16.20;99.90;;;;;;4967971;28;20086;-73
2023/07/16 01:22:25;;;;;;;4.15;1.80;;;16.20;99.90;;;;;;4951750;28;20049;-73
2023/07/16 01:25:10;;;;;;;3.92;1.40;;;16.30;99.90;;;;;;4967632;28;20046;-73
2023/07/16 01:27:51;;;;;;;2.95;1.52;;;16.20;99.90;;;;;;4966441;28;20520;-73
2023/07/16 01:30:19;;;;;;;5.07;1.60;;;16.30;1.00;;;;;;4951745;28;20046;-74
2023/07/16 01:32:46;;;;;;;3.50;1.50;;;16.30;99.90;;;;;;4968066;28;20058;-73
2023/07/16 01:35:13;;;;;;;3.75;1.48;;;16.30;99.90;;;;;;4967888;28;20083;-72
2023/07/16 01:37:41;;;;;;;4.47;1.73;;;16.40;99.90;;;;;;4968455;28;20370;-72
2023/07/16 01:40:08;;;;;;;3.80;1.60;;;16.40;99.90;;;;;;4968257;28;20042;-74
2023/07/16 01:42:34;;;;;;;4.28;1.90;;;16.50;99.90;;;;;;4950903;28;20083;-73
2023/07/16 01:45:00;;;;;;;2.88;1.30;;;16.50;99.90;;;;;;4967719;28;20046;-73
2023/07/16 01:47:28;;;;;;;3.55;1.40;;;16.50;99.90;;;;;;4967381;28;20840;-72
2023/07/16 01:49:55;;;;;;;1.80;1.20;;;16.50;99.90;;;;;;4951403;28;20132;-72
2023/07/16 01:52:21;;;;;;;4.32;1.63;;;16.40;1.00;;;;;;4979714;28;20051;-74
2023/07/16 01:54:47;;;;;;;3.30;1.55;;;16.50;99.90;;;;;;4964882;28;20059;-73
2023/07/16 01:57:13;;;;;;;4.75;1.95;;;16.50;99.90;;;;;;4967036;28;20374;-73
2023/07/16 01:59:39;;;;;;;3.13;1.55;;;16.50;99.90;;;;;;4967447;28;20046;-73
2023/07/16 02:02:04;;;;;;;4.50;1.63;;;16.50;99.90;;;;;;4951916;28;20051;-73
2023/07/16 02:04:30;;;;;;;3.83;1.60;;;16.50;99.90;;;;;;4980292;28;20127;-73
2023/07/16 02:06:56;;;;;;;4.07;1.55;;;16.50;99.90;;;;;;4950476;28;20065;-73
2023/07/16 02:09:22;;;;;;;2.90;1.20;;;16.40;99.90;;;;;;4935216;28;20811;-73
2023/07/16 02:11:47;;;;;;;4.13;1.80;;;16.40;1.00;;;;;;4950436;28;20496;-74
2023/07/16 02:14:14;;;;;;;4.85;1.60;;;16.40;1.00;;;;;;4950847;28;20062;-73
2023/07/16 02:16:40;;;;;;;3.40;1.45;;;16.40;1.00;;;;;;4967172;28;20452;-73
2023/07/16 02:19:05;;;;;;;5.10;1.85;;;16.40;1.00;;;;;;4954072;28;20050;-73
2023/07/16 02:21:31;;;;;;;6.07;2.08;;;16.40;1.00;;;;;;4970005;28;20095;-73
2023/07/16 02:23:57;;;;;;;4.53;1.67;;;16.40;1.00;;;;;;4938448;28;20051;-74
2023/07/16 02:26:23;;;;;;;3.95;2.10;;;16.40;1.00;;;;;;4970269;28;20071;-73
2023/07/16 02:28:48;;;;;;;4.90;2.10;;;16.40;1.00;;;;;;4970344;28;20544;-72
2023/07/16 02:31:14;;;;;;;4.32;1.98;;;16.40;1.00;;;;;;4970341;28;20055;-72
2023/07/16 02:33:40;;;;;;;7.57;2.63;;;16.40;1.00;;;;;;4970158;28;20401;-72
2023/07/16 02:36:06;;;;;;;6.40;2.50;;;16.50;99.90;;;;;;4969581;28;20162;-73
2023/07/16 02:38:32;;;;;;;5.40;2.47;;;16.50;99.90;;;;;;4954183;28;20599;-74
2023/07/16 02:40:58;;;;;;;4.53;2.30;;;16.50;99.90;;;;;;4954835;28;20489;-73
2023/07/16 02:43:23;;;;;;;4.78;2.17;;;16.50;99.90;;;;;;4968796;28;20054;-73
2023/07/16 02:45:49;;;;;;;5.30;2.42;;;16.60;99.90;;;;;;4968784;28;20046;-74
2023/07/16 02:48:15;;;;;;;4.95;2.42;;;16.50;99.90;;;;;;4968381;28;20105;-74
2023/07/16 02:50:40;;;;;;;5.35;2.58;;;16.60;99.90;;;;;;4968513;28;20371;-74
2023/07/16 02:53:07;;;;;;;5.15;2.53;;;16.60;99.90;;;;;;4970051;28;20046;-74
2023/07/16 02:55:34;;;;;;;4.75;2.33;;;16.60;99.90;;;;;;4970016;28;20468;-74
2023/07/16 02:58:04;;;;;;;5.43;2.20;;;16.60;99.90;;;;;;4970308;28;20054;-74
2023/07/16 03:00:34;;;;;;;4.15;1.98;;;16.60;99.90;;;;;;4968040;28;20126;-74
2023/07/16 03:03:00;;;;;;;3.80;2.20;;;16.60;99.90;;;;;;4954014;28;20492;-74
2023/07/16 03:05:26;;;;;;;;;;;16.60;99.90;;;;;;4984885;28;20520;-74
2023/07/16 03:07:52;;;;;;;4.63;2.25;;;16.60;99.90;;;;;;4970154;28;19997;-74
2023/07/16 03:10:17;;;;;;;5.75;2.38;;;16.60;99.90;;;;;;4980085;28;20077;-74
2023/07/16 03:12:43;;;;;;;7.78;2.35;;;16.50;99.90;;;;;;4969541;28;20046;-74
2023/07/16 03:15:09;;;;;;;3.28;2.10;;;16.50;99.90;;;;;;4969556;28;20085;-74
2023/07/16 03:17:35;;;;;;;4.80;2.10;;;16.50;99.90;;;;;;4969167;28;20079;-74
2023/07/16 03:20:02;;;;;;;4.80;2.53;;;16.50;99.90;;;;;;4953214;28;20066;-73
2023/07/16 03:22:28;;;;;;;3.40;2.17;;;16.50;99.90;;;;;;4984930;28;20044;-74
2023/07/16 03:24:53;;;;;;;4.28;2.20;;;16.50;99.90;;;;;;5027500;28;20054;-74
2023/07/16 03:27:19;;;;;;;3.47;1.98;;;16.50;99.90;;;;;;4969243;28;20078;-75
2023/07/16 03:29:45;;;;;;;5.55;2.35;;;16.40;99.90;;;;;;4952885;28;20049;-75
2023/07/16 03:32:10;;;;;;;7.43;2.80;;;16.50;99.90;;;;;;4968932;28;20401;-75
2023/07/16 03:34:36;;;;;;;5.13;2.67;;;16.50;99.90;;;;;;4953145;28;20109;-74
2023/07/16 03:37:02;;;;;;;6.20;2.75;;;16.50;99.90;;;;;;4968990;28;20051;-75
2023/07/16 03:39:27;;;;;;;6.35;2.70;;;16.50;99.90;;;;;;4969133;28;20054;-75
2023/07/16 03:41:53;;;;;;;7.95;3.00;;;16.50;99.90;;;;;;4971684;28;20038;-73
2023/07/16 03:44:19;;;;;;;6.78;2.70;;;16.50;99.90;;;;;;4980790;28;20469;-73
2023/07/16 03:46:44;;;;;;;5.03;2.50;;;16.50;99.90;;;;;;4955848;28;20058;-73
2023/07/16 03:49:10;;;;;;;5.00;2.67;;;16.50;99.90;;;;;;4954644;28;20058;-74
2023/07/16 03:51:36;;;;;;;3.80;2.33;;;16.50;99.90;;;;;;4934011;28;20043;-74
2023/07/16 03:54:01;;;;;;;4.13;2.17;;;16.50;99.90;;;;;;4952708;28;20042;-73
2023/07/16 03:56:27;;;;;;;5.93;2.92;;;16.50;99.90;;;;;;4952452;28;20062;-73
2023/07/16 03:58:53;;;;;;;4.82;2.60;;;16.50;99.90;;;;;;4968773;28;20049;-74
2023/07/16 04:01:19;;;;;;;6.50;3.15;;;16.50;99.90;;;;;;4959744;28;20348;-74
2023/07/16 04:03:44;;;;;;;5.10;2.67;;;16.50;99.90;;;;;;4973728;28;20037;-74
2023/07/16 04:06:10;;;;;;;6.80;2.80;;;16.40;99.90;;;;;;4967682;28;20070;-74
2023/07/16 04:08:37;;;;;;;5.88;2.72;;;16.40;99.90;;;;;;4968396;28;20051;-74
2023/07/16 04:11:06;;;;;;;;;;;16.40;1.00;;;;;;4968358;28;20062;-74
2023/07/16 04:13:32;;;;;;;6.15;3.20;;;16.40;1.00;;;;;;4968231;28;19918;-75
2023/07/16 04:15:57;;;;;;;5.28;2.75;;;16.40;1.00;;;;;;4968262;28;20149;-73
2023/07/16 04:18:26;;;;;;;6.47;2.72;;;16.40;1.00;;;;;;4968172;28;20061;-74
2023/07/16 04:20:52;;;;;;;4.93;3.03;;;16.40;1.00;;;;;;4968191;28;20055;-74
2023/07/16 04:23:18;;;;;;;4.20;2.10;;;16.50;1.00;;;;;;4967863;28;20046;-74
2023/07/16 04:25:44;;;;;;;5.82;3.20;;;16.50;1.00;;;;;;4920518;28;20047;-75
2023/07/16 04:28:11;;;;;;;5.82;2.90;;;16.50;1.00;;;;;;4969408;28;20039;-75
2023/07/16 04:30:37;;;;;;;5.50;3.28;;;16.50;1.00;;;;;;4968606;28;20092;-75
2023/07/16 04:33:03;;;;;;;7.10;3.20;;;16.50;1.00;;;;;;4967951;28;20543;-75
2023/07/16 04:35:29;;;;;;;5.55;3.05;;;16.50;1.00;;;;;;4968397;28;20054;-74
2023/07/16 04:37:55;;;;;;;8.27;3.40;;;16.50;12.00;;;;;;4949238;28;20027;-76
2023/07/16 04:40:20;;;;;;;6.47;3.47;;;16.50;1.00;;;;;;4958442;28;20041;-74
2023/07/16 04:42:46;;;;;;;7.53;3.35;;;16.60;1.00;;;;;;4933097;28;20485;-77
2023/07/16 04:45:13;;;;;;;6.65;3.60;;;16.60;1.00;;;;;;5015619;28;20127;-73
2023/07/16 04:47:39;;;;;;;7.10;3.58;;;16.70;1.00;;;;;;5007917;28;20085;-74
2023/07/16 04:50:05;;;;;;;5.95;3.33;;;16.70;1.00;;;;;;4958569;28;20074;-74
2023/07/16 04:52:31;;;;;;;6.25;3.13;;;16.70;1.00;;;;;;5034016;28;20051;-73
2023/07/16 04:54:56;;;;;;;8.68;3.97;;;16.70;24.90;;;;;;4961547;28;20053;-74
2023/07/16 04:57:22;;;;;;;7.13;3.80;;;16.80;25.00;;;;;;4978141;28;20483;-74
2023/07/16 04:59:48;;;;;;;5.93;3.53;;;16.80;1.00;;;;;;4966604;28;20125;-75
2023/07/16 05:02:16;;;;;;;8.65;3.47;;;16.90;1.00;;;;;;4972282;28;20046;-74
2023/07/16 05:04:43;;;;;;;5.60;3.47;;;16.90;46.90;;;;;;5011733;28;20048;-75
2023/07/16 05:07:09;;;;;;;5.35;3.28;;;16.90;56.60;;;;;;5032942;28;20062;-75
2023/07/16 05:09:35;;;;;;;7.53;3.10;;;16.90;49.10;;;;;;4954216;28;20383;-74
2023/07/16 05:12:01;;;;;;;9.65;3.70;;;17.00;25.90;;;;;;4946313;28;20116;-74
2023/07/16 05:14:28;;;;;;;8.90;3.50;;;17.10;43.80;;;;;;4967273;28;20065;-74
2023/07/16 05:16:54;;;;;;;7.65;3.50;;;17.10;1.00;;;;;;4982299;28;20062;-74
2023/07/16 05:19:19;;;;;;;;;;;17.20;1.00;;;;;;4968711;28;20054;-74
2023/07/16 05:21:45;;;;;;;5.55;3.10;;;17.30;1.00;;;;;;4948917;28;19925;-74
2023/07/16 05:24:11;;;;;;;5.80;3.17;;;17.20;1.00;;;;;;4965190;28;20046;-75
2023/07/16 05:26:37;;;;;;;6.18;2.90;;;17.20;1.00;;;;;;4950514;28;20047;-75
2023/07/16 05:29:03;;;;;;;7.75;3.35;;;17.30;1.00;;;;;;4965828;28;20104;-75
2023/07/16 05:31:29;;;;;;;5.47;3.38;;;17.30;1.00;;;;;;4964984;28;20047;-75
2023/07/16 05:33:55;;;;;;;6.63;3.10;;;17.40;99.90;;;;;;4967158;28;20062;-75
2023/07/16 05:36:20;;;;;;;7.78;3.20;;;17.40;1.00;;;;;;4965473;28;20050;-77
2023/07/16 05:38:46;;;;;;;5.90;2.90;;;17.50;99.90;;;;;;4947961;28;20039;-75
2023/07/16 05:41:12;;;;;;;5.43;2.85;;;17.50;99.90;;;;;;5035126;28;20062;-75
2023/07/16 05:43:37;;;;;;;;;;;17.50;99.90;;;;;;4954248;28;20126;-75
2023/07/16 05:46:05;;;;;;;6.22;2.97;;;17.50;99.90;;;;;;4967345;28;19925;-74
2023/07/16 05:48:31;;;;;;;5.72;2.97;;;17.50;99.90;;;;;;4960207;28;20130;-75
2023/07/16 05:50:56;;;;;;;;;;;17.50;99.90;;;;;;4980251;28;20053;-76
2023/07/16 05:53:22;;;;;;;6.80;3.17;;;17.50;99.90;;;;;;4970577;28;19922;-75
2023/07/16 05:55:49;;;;;;;5.00;2.60;;;17.50;99.90;;;;;;4981818;28;20387;-75
2023/07/16 05:58:16;;;;;;;4.90;2.58;;;17.60;99.90;;;;;;4951978;28;20488;-75
2023/07/16 06:00:42;;;;;;;5.85;3.10;;;17.60;99.90;;;;;;4939709;28;20079;-74
2023/07/16 06:03:07;;;;;;;5.38;2.35;;;17.70;99.90;;;;;;4969618;28;20156;-75
2023/07/16 06:05:34;;;;;;;5.10;2.55;;;17.90;1.00;;;;;;4996376;28;20104;-75
2023/07/16 06:08:01;;;;;;;5.15;2.40;;;17.90;99.90;;;;;;5022857;28;20058;-75
2023/07/16 06:10:27;;;;;;;5.25;2.75;;;18.00;99.90;;;;;;4985580;28;20058;-75
2023/07/16 06:12:52;;;;;;;;;;;18.00;99.90;;;;;;4965950;28;20035;-75
2023/07/16 06:15:18;;;;;;;4.68;2.47;;;18.00;99.90;;;;;;4987711;28;19917;-75
2023/07/16 06:17:44;;;;;;;3.78;2.20;;;17.90;99.90;;;;;;5054136;28;20048;-75
2023/07/16 06:20:09;;;;;;;;;;;17.90;99.90;;;;;;5005751;28;20046;-75
2023/07/16 06:22:36;;;;;;;6.38;2.72;;;18.00;1.00;;;;;;4983137;28;20348;-74
2023/07/16 06:25:01;;;;;;;6.10;2.80;;;18.00;99.90;;;;;;4945307;28;20044;-74
2023/07/16 06:27:27;;;;;;;;;;;18.10;1.00;;;;;;4976008;28;20059;-75
2023/07/16 06:29:53;;;;;;;8.27;3.05;;;18.10;99.90;;;;;;4953465;28;19969;-75
2023/07/16 06:32:18;;;;;;;7.05;3.33;;;18.00;99.90;;;;;;4964345;28;20096;-76
2023/07/16 06:34:44;;;;;;;;;;;18.00;99.90;;;;;;4980683;28;20054;-75
2023/07/16 06:37:10;;;;;;;8.50;3.40;;;18.00;99.90;;;;;;4961978;28;19940;-75
2023/07/16 06:39:35;;;;;;;6.53;3.28;;;18.00;99.90;;;;;;4972871;28;20107;-75
2023/07/16 06:42:01;;;;;;;6.82;3.05;;;18.00;1.00;;;;;;4998574;28;20085;-74
2023/07/16 06:44:27;;;;;;;5.93;3.08;;;18.00;99.90;;;;;;4962725;28;20074;-75
2023/07/16 06:46:53;;;;;;;;;;;18.10;99.90;;;;;;4982399;28;20082;-73
2023/07/16 06:49:19;;;;;;;9.85;4.00;;;18.10;99.90;;;;;;4984874;28;19918;-73
2023/07/16 06:51:44;;;;;;;6.95;3.38;;;18.10;99.90;;;;;;4994489;28;20034;-73
2023/07/16 06:54:10;;;;;;;;;;;18.10;99.90;;;;;;4965881;28;20056;-75
2023/07/16 06:56:36;;;;;;;6.15;3.15;;;18.20;99.90;;;;;;4966290;28;20362;-74
2023/07/16 06:59:02;;;;;;;7.53;3.40;;;18.20;99.90;;;;;;4970170;28;20050;-75
2023/07/16 07:01:28;;;;;;;7.90;3.42;;;18.20;99.90;;;;;;4933672;28;20057;-74
2023/07/16 07:03:54;;;;;;;7.80;3.45;;;18.20;99.90;;;;;;4969268;28;20035;-75
2023/07/16 07:06:21;;;;;;;6.15;3.40;;;18.20;99.90;;;;;;4950810;28;20059;-74
2023/07/16 07:08:47;;;;;;;6.82;3.50;;;18.30;99.90;;;;;;4995166;28;20043;-74
2023/07/16 07:11:12;;;;;;;;;;;18.40;99.90;;;;;;4979859;28;20066;-75
2023/07/16 07:13:38;;;;;;;6.28;3.53;;;18.50;99.90;;;;;;4961225;28;20273;-77
2023/07/16 07:16:04;;;;;;;;;;;18.50;99.90;;;;;;4959765;28;20050;-76
2023/07/16 07:18:30;;;;;;;7.38;3.80;;;18.60;76.80;;;;;;4984941;28;19918;-75
2023/07/16 07:20:55;;;;;;;;;;;18.60;99.90;;;;;;5002066;28;20129;-76
2023/07/16 07:23:21;;;;;;;5.93;3.03;;;18.70;99.90;;;;;;4966114;28;20071;-74
2023/07/16 07:25:53;;;;;;;;;;;18.90;99.90;;;;;;4940205;28;20062;-75
2023/07/16 07:28:19;;;;;;;8.95;3.63;;;19.00;28.00;;;;;;4970253;28;19960;-75
2023/07/16 07:30:45;;;;;;;7.57;3.88;;;18.90;99.90;;;;;;4952390;28;20501;-76
2023/07/16 07:33:11;;;;;;;;;;;18.80;1.00;;;;;;4967435;28;20072;-75
2023/07/16 07:35:37;;;;;;;8.27;4.00;;;18.70;99.90;;;;;;4982817;28;20046;-74
2023/07/16 07:38:02;;;;;;;7.93;3.65;;;18.40;99.90;;;;;;4960175;28;20047;-75
2023/07/16 07:40:28;;;;;;;;;;;18.20;99.90;;;;;;4962027;28;20172;-74
2023/07/16 07:42:54;;;;;;;4.72;3.05;;;18.20;99.90;;;;;;4999488;28;19918;-76
2023/07/16 07:45:19;;;;;;;3.92;2.63;;;18.30;99.90;;;;;;4964710;28;20457;-74
2023/07/16 07:47:45;;;;;;;;;;;18.40;99.90;;;;;;5006853;28;20034;-76
2023/07/16 07:50:11;;;;;;;8.00;3.72;;;18.40;99.90;;;;;;4976122;28;19971;-75
2023/07/16 07:52:36;;;;;;;;;;;18.40;99.90;;;;;;4948370;28;20096;-75
2023/07/16 07:55:03;;;;;;;9.52;3.83;;;18.30;55.50;;;;;;4976411;28;19922;-74
2023/07/16 07:57:29;;;;;;;5.80;3.08;;;18.20;20.00;;;;;;4991925;28;20051;-74
2023/07/16 07:59:57;;;;;;;;;;;18.20;86.10;;;;;;5037218;28;20463;-75
2023/07/16 08:02:24;;;;;;;5.88;3.15;;;18.30;1.00;;;;;;4985225;28;19920;-75
2023/07/16 08:04:56;;;;;;;7.85;3.63;;;18.30;1.00;;;;;;4984049;28;20050;-75
2023/07/16 08:07:22;;;;;;;5.72;2.92;;;18.40;1.00;;;;;;4966763;28;20063;-75
2023/07/16 08:09:48;;;;;;;4.50;3.03;;;18.60;1.00;;;;;;4933617;28;20134;-73
2023/07/16 08:12:13;;;;;;;;;;;18.70;1.00;;;;;;4966191;28;20114;-74
2023/07/16 08:14:39;;;;;;;6.25;3.28;;;18.70;99.90;;;;;;4967641;28;20727;-78
2023/07/16 08:17:05;;;;;;;5.32;3.03;;;18.70;99.90;;;;;;4969847;28;20110;-75
2023/07/16 08:19:31;;;;;;;6.38;3.30;;;18.70;1.00;;;;;;4987891;28;20456;-75
2023/07/16 08:21:56;;;;;;;;;;;18.70;1.00;;;;;;5002887;28;20043;-75
2023/07/16 08:24:22;;;;;;;8.27;3.72;;;18.60;99.90;;;;;;5012669;28;19969;-73
2023/07/16 08:26:48;;;;;;;5.70;3.00;;;18.50;73.70;;;;;;4949152;28;20175;-74
2023/07/16 08:29:13;;;;;;;5.25;3.30;;;18.30;1.00;;;;;;4969003;28;20406;-74
2023/07/16 08:31:40;;;;;;;;;;;18.20;99.90;;;;;;4973236;28;20045;-74
2023/07/16 08:34:05;;;;;;;5.25;3.00;;;18.00;99.90;;;;;;4952795;28;19918;-74
2023/07/16 08:36:32;;;;;;;;;;;18.00;1.00;;;;;;4969303;28;20058;-74
2023/07/16 08:38:58;;;;;;;5.70;3.17;;;17.90;77.50;;;;;;4968729;28;20373;-75
2023/07/16 08:41:24;;;;;;;;;;;17.70;99.90;;;;;;4968452;28;20050;-75
2023/07/16 08:43:51;;;;;;;5.05;3.00;;;17.70;74.00;;;;;;4964264;28;20040;-75
2023/07/16 08:46:16;;;;;;;3.97;2.40;;;17.70;1.00;;;;;;4966908;28;20062;-75
2023/07/16 08:48:42;;;;;;;;;;;17.90;1.00;;;;;;4967459;28;20110;-75
2023/07/16 08:51:09;;;;;;;5.35;3.08;;;17.90;99.90;;;;;;4968192;28;19922;-74
2023/07/16 08:53:35;;;;;;;7.05;3.25;;;18.00;99.90;;;;;;4967869;28;20049;-74
2023/07/16 08:56:04;;;;;;;;;;;18.30;1.00;;;;;;4951641;28;20042;-75
2023/07/16 08:58:30;;;;;;;6.43;3.60;;;18.60;99.90;;;;;;4957026;28;20323;-75
2023/07/16 09:00:56;;;;;;;6.32;3.85;;;19.00;99.90;;;;;;4949225;28;20054;-74
2023/07/16 09:03:22;;;;;;;;;;;19.30;99.90;;;;;;4948836;28;20042;-73
2023/07/16 09:05:47;;;;;;;7.53;4.10;;;19.50;1.00;;;;;;4931971;28;20667;-76
2023/07/16 09:08:13;;;;;;;;;;;19.60;99.90;;;;;;4966796;28;20088;-73
2023/07/16 09:10:43;;;;;;;5.85;3.38;;;19.80;99.90;;;;;;4950427;28;19925;-74
2023/07/16 09:13:09;;;;;;;7.68;3.33;;;20.00;99.90;;;;;;4967107;28;20122;-74
2023/07/16 09:15:35;;;;;;;8.77;3.30;;;20.00;44.30;;;;;;4965707;28;20118;-74
2023/07/16 09:18:00;;;;;;;;;;;20.00;26.10;;;;;;4967080;28;20043;-74
2023/07/16 09:20:27;;;;;;;6.80;3.58;;;20.00;52.80;;;;;;4964094;28;19929;-77
2023/07/16 09:22:57;;;;;;;7.30;3.33;;;19.90;41.50;;;;;;4963743;28;20502;-73
2023/07/16 09:25:30;;;;;;;7.57;3.50;;;19.80;74.50;;;;;;4961714;28;20046;-73
2023/07/16 09:27:58;;;;;;;5.57;2.90;;;19.70;86.60;;;;;;4964214;28;20401;-76
2023/07/16 09:30:24;;;;;;;5.05;3.10;;;19.70;99.90;;;;;;4966275;28;20074;-73
2023/07/16 09:32:50;;;;;;;;;;;19.70;99.90;;;;;;4932394;28;20081;-76
2023/07/16 09:35:17;;;;;;;4.35;2.80;;;19.70;99.90;;;;;;4945451;28;19984;-74
2023/07/16 09:37:43;;;;;;;5.05;2.70;;;19.70;99.90;;;;;;5030193;28;20102;-75
2023/07/16 09:40:12;;;;;;;5.70;3.08;;;19.80;99.90;;;;;;5044534;28;20055;-75
2023/07/16 09:42:41;;;;;;;5.22;3.05;;;20.00;99.90;;;;;;5022995;28;20108;-74
2023/07/16 09:45:09;;;;;;;5.97;3.10;;;20.20;99.90;;;;;;4978346;28;20120;-74
2023/07/16 09:47:35;;;;;;;5.97;3.10;;;20.70;99.90;;;;;;4958051;28;20066;-73
2023/07/16 09:50:02;;;;;;;7.15;3.22;;;20.90;90.00;;;;;;4939421;28;20039;-74
2023/07/16 09:52:28;;;;;;;6.80;3.20;;;21.10;35.40;;;;;;4962209;28;20047;-73
2023/07/16 09:54:56;;;;;;;6.00;3.28;;;21.00;1.00;;;;;;5033281;28;20041;-73
2023/07/16 09:57:25;;;;;;;5.85;2.97;;;20.70;1.00;;;;;;4987558;28;20224;-73
2023/07/16 09:59:52;;;;;;;5.40;2.80;;;20.40;99.90;;;;;;5070230;28;20128;-72
2023/07/16 10:02:19;;;;;;;6.10;2.72;;;20.20;99.90;;;;;;4998950;28;20048;-73
2023/07/16 10:04:45;;;;;;;5.93;3.15;;;20.30;99.90;;;;;;5069572;28;20491;-73
2023/07/16 10:07:22;;;;;;;9.02;3.50;;;20.40;86.80;;;;;;5054204;28;20055;-74
2023/07/16 10:09:55;;;;;;;4.75;2.95;;;20.40;4.40;;;;;;5020745;28;20124;-76
2023/07/16 10:12:22;;;;;;;6.55;3.13;;;20.30;27.70;;;;;;4974844;28;20100;-76
2023/07/16 10:14:53;;;;;;;5.10;2.90;;;20.40;8.10;;;;;;5005422;28;20040;-73
2023/07/16 10:17:20;;;;;;;7.93;2.88;;;20.40;1.00;;;;;;4978224;28;20062;-73
2023/07/16 10:19:57;;;;;;;5.05;2.90;;;20.40;1.00;;;;;;4966828;28;20390;-73
2023/07/16 10:22:40;;;;;;;4.53;2.97;;;20.40;1.00;;;;;;5038098;28;20103;-73
2023/07/16 10:25:22;;;;;;;4.90;2.75;;;20.50;45.90;;;;;;5021055;28;20056;-73
2023/07/16 10:27:49;;;;;;;4.55;2.90;;;20.50;1.00;;;;;;4969324;28;20051;-73
2023/07/16 10:30:16;;;;;;;5.57;3.20;;;21.10;1.00;;;;;;4957809;28;20043;-74
2023/07/16 10:32:42;;;;;;;5.28;2.55;;;21.30;99.90;;;;;;5052811;28;20048;-74
2023/07/16 10:35:09;;;;;;;4.35;2.67;;;21.20;99.90;;;;;;5024074;28;20142;-76
2023/07/16 10:37:35;;;;;;;6.30;3.13;;;20.80;99.90;;;;;;4934740;28;20055;-75
2023/07/16 10:40:06;;;;;;;6.40;2.90;;;20.50;1.00;;;;;;5020138;28;20484;-74
2023/07/16 10:42:32;;;;;;;5.32;3.00;;;20.20;1.00;;;;;;5010880;28;20415;-74
2023/07/16 10:45:00;;;;;;;5.65;3.20;;;20.10;1.00;;;;;;5061354;28;20048;-74
2023/07/16 10:47:38;;;;;;;5.93;3.28;;;20.00;22.50;;;;;;4969648;28;20039;-76
2023/07/16 10:50:08;;;;;;;5.55;3.50;;;20.10;24.10;;;;;;4952199;28;20038;-74
2023/07/16 10:52:34;;;;;;;4.97;3.13;;;20.60;83.10;;;;;;5002292;28;20692;-80
2023/07/16 10:55:00;;;;;;;6.25;3.20;;;20.90;1.00;;;;;;4989175;28;20061;-75
2023/07/16 10:57:27;;;;;;;6.95;3.03;;;20.80;1.00;;;;;;4958403;28;20043;-75
2023/07/16 10:59:55;;;;;;;5.25;2.95;;;20.80;1.00;;;;;;4966593;28;20398;-76
2023/07/16 11:02:22;;;;;;;8.80;3.42;;;20.80;1.00;;;;;;4951686;28;20051;-75
2023/07/16 11:04:48;;;;;;;7.95;3.85;;;21.10;99.90;;;;;;4959709;28;20039;-76
2023/07/16 11:07:15;;;;;;;5.90;2.75;;;21.50;99.90;;;;;;4955788;28;20493;-75
2023/07/16 11:09:51;;;;;;;4.82;2.50;;;21.60;99.90;;;;;;4970661;28;20062;-75
2023/07/16 11:12:20;;;;;;;6.72;3.17;;;21.60;99.90;;;;;;4946878;28;20479;-76
2023/07/16 11:14:49;;;;;;;4.97;2.63;;;21.30;99.90;;;;;;4959630;28;20054;-76
2023/07/16 11:17:15;;;;;;;8.02;2.95;;;21.40;99.90;;;;;;4967972;28;20042;-75
2023/07/16 11:19:45;;;;;;;5.00;2.80;;;21.10;99.90;;;;;;4967480;28;20625;-75
2023/07/16 11:22:11;;;;;;;6.75;3.00;;;21.10;99.90;;;;;;4968877;28;20047;-75
2023/07/16 11:24:46;;;;;;;5.55;2.60;;;20.90;99.90;;;;;;4963887;28;20093;-76
2023/07/16 11:27:30;;;;;;;5.25;3.17;;;20.70;99.90;;;;;;4963594;28;20050;-75
2023/07/16 11:29:58;;;;;;;5.10;2.80;;;20.50;99.90;;;;;;4933570;28;20100;-77
2023/07/16 11:32:35;;;;;;;3.80;2.47;;;20.30;1.00;;;;;;4967667;28;20050;-77
2023/07/16 11:35:04;;;;;;;7.18;2.55;;;20.30;1.00;;;;;;4954262;28;20054;-75
2023/07/16 11:37:31;;;;;;;4.85;2.42;;;20.20;1.00;;;;;;4958783;28;20483;-74
2023/07/16 11:40:03;;;;;;;4.80;2.70;;;20.30;1.00;;;;;;4964599;28;20069;-76
2023/07/16 11:42:31;;;;;;;8.05;2.85;;;20.70;1.00;;;;;;4963212;28;20054;-75
2023/07/16 11:44:57;;;;;;;5.10;3.00;;;20.90;99.90;;;;;;4967531;28;20050;-75
2023/07/16 11:47:23;;;;;;;5.20;2.63;;;21.00;99.90;;;;;;4960611;28;20074;-76
2023/07/16 11:49:50;;;;;;;5.70;2.70;;;20.80;99.90;;;;;;4948072;28;20077;-75
2023/07/16 11:52:29;;;;;;;6.00;2.92;;;20.60;99.90;;;;;;4966718;28;20049;-74
2023/07/16 11:54:59;;;;;;;6.75;2.72;;;20.30;1.00;;;;;;4946830;28;20054;-74
2023/07/16 11:57:25;;;;;;;6.20;2.92;;;20.10;1.00;;;;;;4967088;28;20041;-75
2023/07/16 11:59:51;;;;;;;7.45;3.05;;;19.90;15.10;;;;;;4965264;28;20442;-74
2023/07/16 12:02:16;;;;;;;;;;;19.90;72.80;;;;;;4968458;28;20123;-73
2023/07/16 12:04:42;;;;;;;6.20;3.30;;;19.80;99.90;;;;;;4965623;28;20286;-74
2023/07/16 12:07:08;;;;;;;;;;;19.70;99.90;;;;;;4965808;28;20050;-74
2023/07/16 12:09:34;;;;;;;6.93;3.47;;;19.60;99.90;;;;;;4963327;28;19926;-75
2023/07/16 12:11:59;;;;;;;;;;;19.60;99.90;;;;;;4951700;28;20041;-75
2023/07/16 12:33:06;;;;;;;5.70;2.97;;;20.50;60.80;;;;;;5106251;27;20452;-76
2023/07/16 12:35:32;;;;;;;5.43;3.47;;;20.20;99.90;;;;;;5085963;28;20105;-75
2023/07/16 12:37:58;;;;;;;;;;;20.10;99.90;;;;;;5080545;28;20043;-76
2023/07/16 12:40:25;;;;;;;6.18;3.00;;;19.90;99.90;;;;;;5106209;28;19930;-76
2023/07/16 12:42:51;;;;;;;5.97;3.30;;;19.90;68.50;;;;;;5105554;28;20032;-76
2023/07/16 12:45:16;;;;;;;;;;;19.80;1.00;;;;;;5089405;28;20035;-77
2023/07/16 12:47:42;;;;;;;7.28;3.83;;;19.80;99.90;;;;;;5121921;27;19919;-77
2023/07/16 12:50:08;;;;;;;;;;;19.70;99.90;;;;;;5124230;27;20113;-77
2023/07/16 12:52:33;;;;;;;8.35;3.70;;;19.70;99.90;;;;;;5092104;28;19974;-78
2023/07/16 12:54:59;;;;;;;;;;;19.80;84.30;;;;;;5088702;28;20098;-77
2023/07/16 12:57:25;;;;;;;7.15;3.60;;;20.00;99.90;;;;;;5101070;28;19916;-77
2023/07/16 12:59:50;;;;;;;;;;;19.90;82.60;;;;;;5080970;28;20526;-75
2023/07/16 13:02:16;;;;;;;5.85;3.45;;;19.80;23.40;;;;;;5104810;28;19920;-76
2023/07/16 13:04:42;;;;;;;;;;;19.80;99.90;;;;;;5097971;28;20105;-77
2023/07/16 13:07:08;;;;;;;6.28;3.08;;;19.80;99.90;;;;;;5102337;28;20022;-76
2023/07/16 13:09:34;;;;;;;;;;;19.80;99.90;;;;;;5093322;28;20047;-75
2023/07/16 13:11:59;;;;;;;6.50;3.33;;;19.80;1.00;;;;;;5109601;28;19970;-81
2023/07/16 13:14:26;;;;;;;;;;;19.90;99.90;;;;;;5069406;28;20071;-75
2023/07/16 13:16:51;;;;;;;7.00;2.90;;;19.90;99.90;;;;;;5124251;27;20368;-76